Breedsville, Michigan
Current Conditions -  °F | °C
As of 5:55 PM on Wednesday 22 Oct 2014 (Local Time) from KLWA Reporting Station
Clear Clear  
Wind Chill: 50°   Ceiling: Unl
Heat Index: 50°   Visibility: 10mi
Dew Point: 40°   Wind: 5mph
Humidity: 67%   Direction: 360°N
Pressure: 30.3"   Gusts: NA
Location:  42.35°N, 86.07°W
Report Text: KLWA 222155Z AUTO 36004KT 10SM CLR 10/04 A3030 RMK AO2 T01020043
Loading
Personal Weather Stations






























Interactive Weather Map
Tropical Storm Tracking
New forecast layout! Learn more

10-Day Weather Forecast

Advertisements
Track Severe Weather on mobile